sensor_id;sensor_type;location;lat;lon;timestamp;P1;durP1;ratioP1;P2;durP2;ratioP2
46653;SDS011;38960;51.074;17.004;2023-04-15T00:02:22;30.73;;;27.75;;
46653;SDS011;38960;51.074;17.004;2023-04-15T00:04:47;29.38;;;26.60;;
46653;SDS011;38960;51.074;17.004;2023-04-15T00:07:13;26.73;;;24.42;;
46653;SDS011;38960;51.074;17.004;2023-04-15T00:09:40;27.10;;;24.70;;
46653;SDS011;38960;51.074;17.004;2023-04-15T00:12:05;24.80;;;22.70;;
46653;SDS011;38960;51.074;17.004;2023-04-15T00:14:33;25.02;;;22.83;;
46653;SDS011;38960;51.074;17.004;2023-04-15T00:17:00;22.80;;;20.88;;
46653;SDS011;38960;51.074;17.004;2023-04-15T00:19:26;23.08;;;21.23;;
46653;SDS011;38960;51.074;17.004;2023-04-15T00:21:52;22.33;;;20.42;;
46653;SDS011;38960;51.074;17.004;2023-04-15T00:24:17;21.98;;;20.25;;
46653;SDS011;38960;51.074;17.004;2023-04-15T00:26:43;23.17;;;20.90;;
46653;SDS011;38960;51.074;17.004;2023-04-15T00:29:08;21.42;;;19.60;;
46653;SDS011;38960;51.074;17.004;2023-04-15T00:31:34;22.48;;;20.65;;
46653;SDS011;38960;51.074;17.004;2023-04-15T00:34:00;21.73;;;19.73;;
46653;SDS011;38960;51.074;17.004;2023-04-15T00:36:26;22.30;;;20.48;;
46653;SDS011;38960;51.074;17.004;2023-04-15T00:38:52;22.67;;;20.70;;
46653;SDS011;38960;51.074;17.004;2023-04-15T00:41:19;22.25;;;20.17;;
46653;SDS011;38960;51.074;17.004;2023-04-15T00:43:45;22.80;;;20.80;;
46653;SDS011;38960;51.074;17.004;2023-04-15T00:46:12;22.63;;;20.63;;
46653;SDS011;38960;51.074;17.004;2023-04-15T00:48:38;20.88;;;19.25;;
46653;SDS011;38960;51.074;17.004;2023-04-15T00:51:04;22.60;;;20.50;;
46653;SDS011;38960;51.074;17.004;2023-04-15T00:53:49;22.50;;;20.77;;
46653;SDS011;38960;51.074;17.004;2023-04-15T00:56:16;23.95;;;21.55;;
46653;SDS011;38960;51.074;17.004;2023-04-15T00:58:41;21.58;;;19.67;;
46653;SDS011;38960;51.074;17.004;2023-04-15T01:01:07;21.73;;;19.90;;
46653;SDS011;38960;51.074;17.004;2023-04-15T01:03:33;22.33;;;20.52;;
46653;SDS011;38960;51.074;17.004;2023-04-15T01:05:59;21.38;;;19.63;;
46653;SDS011;38960;51.074;17.004;2023-04-15T01:08:28;22.10;;;19.80;;
46653;SDS011;38960;51.074;17.004;2023-04-15T01:10:57;21.80;;;19.85;;
46653;SDS011;38960;51.074;17.004;2023-04-15T01:13:24;21.90;;;20.10;;
46653;SDS011;38960;51.074;17.004;2023-04-15T01:15:50;21.05;;;19.15;;
46653;SDS011;38960;51.074;17.004;2023-04-15T01:18:17;22.25;;;20.13;;
46653;SDS011;38960;51.074;17.004;2023-04-15T01:20:43;22.13;;;20.30;;
46653;SDS011;38960;51.074;17.004;2023-04-15T01:23:09;21.25;;;19.13;;
46653;SDS011;38960;51.074;17.004;2023-04-15T01:25:34;21.75;;;20.02;;
46653;SDS011;38960;51.074;17.004;2023-04-15T01:28:01;20.90;;;19.20;;
46653;SDS011;38960;51.074;17.004;2023-04-15T01:30:27;21.70;;;19.60;;
46653;SDS011;38960;51.074;17.004;2023-04-15T01:32:54;21.33;;;19.40;;
46653;SDS011;38960;51.074;17.004;2023-04-15T01:35:20;20.75;;;19.05;;
46653;SDS011;38960;51.074;17.004;2023-04-15T01:37:46;21.20;;;19.35;;
46653;SDS011;38960;51.074;17.004;2023-04-15T01:40:15;22.23;;;20.02;;
46653;SDS011;38960;51.074;17.004;2023-04-15T01:42:41;21.23;;;19.42;;
46653;SDS011;38960;51.074;17.004;2023-04-15T01:45:07;22.67;;;20.60;;
46653;SDS011;38960;51.074;17.004;2023-04-15T01:47:36;21.75;;;19.85;;
46653;SDS011;38960;51.074;17.004;2023-04-15T01:50:02;21.13;;;19.00;;
46653;SDS011;38960;51.074;17.004;2023-04-15T01:52:27;21.55;;;19.65;;
46653;SDS011;38960;51.074;17.004;2023-04-15T01:54:53;21.02;;;19.15;;
46653;SDS011;38960;51.074;17.004;2023-04-15T01:57:18;21.77;;;19.88;;
46653;SDS011;38960;51.074;17.004;2023-04-15T01:59:44;22.65;;;20.65;;
46653;SDS011;38960;51.074;17.004;2023-04-15T02:02:10;20.95;;;19.33;;
46653;SDS011;38960;51.074;17.004;2023-04-15T02:04:36;20.60;;;19.05;;
46653;SDS011;38960;51.074;17.004;2023-04-15T02:07:02;21.23;;;19.30;;
46653;SDS011;38960;51.074;17.004;2023-04-15T02:09:27;21.85;;;19.95;;
46653;SDS011;38960;51.074;17.004;2023-04-15T02:11:53;21.60;;;19.58;;
46653;SDS011;38960;51.074;17.004;2023-04-15T02:14:19;20.67;;;19.00;;
46653;SDS011;38960;51.074;17.004;2023-04-15T02:16:45;20.95;;;19.20;;
46653;SDS011;38960;51.074;17.004;2023-04-15T02:19:14;22.25;;;20.40;;
46653;SDS011;38960;51.074;17.004;2023-04-15T02:21:40;21.58;;;19.73;;
46653;SDS011;38960;51.074;17.004;2023-04-15T02:24:06;21.90;;;20.02;;
46653;SDS011;38960;51.074;17.004;2023-04-15T02:26:32;23.02;;;20.83;;
46653;SDS011;38960;51.074;17.004;2023-04-15T02:28:58;22.40;;;20.40;;
46653;SDS011;38960;51.074;17.004;2023-04-15T02:31:24;22.73;;;20.73;;
46653;SDS011;38960;51.074;17.004;2023-04-15T02:33:50;22.52;;;20.60;;
46653;SDS011;38960;51.074;17.004;2023-04-15T02:36:16;22.67;;;20.42;;
46653;SDS011;38960;51.074;17.004;2023-04-15T02:38:42;23.48;;;21.48;;
46653;SDS011;38960;51.074;17.004;2023-04-15T02:41:08;21.92;;;19.83;;
46653;SDS011;38960;51.074;17.004;2023-04-15T02:43:36;23.55;;;21.38;;
46653;SDS011;38960;51.074;17.004;2023-04-15T02:46:04;23.33;;;21.10;;
46653;SDS011;38960;51.074;17.004;2023-04-15T02:48:30;23.83;;;21.48;;
46653;SDS011;38960;51.074;17.004;2023-04-15T02:51:15;23.35;;;21.35;;
46653;SDS011;38960;51.074;17.004;2023-04-15T02:53:44;23.90;;;21.80;;
46653;SDS011;38960;51.074;17.004;2023-04-15T02:56:10;22.98;;;20.98;;
46653;SDS011;38960;51.074;17.004;2023-04-15T02:58:36;24.67;;;22.48;;
46653;SDS011;38960;51.074;17.004;2023-04-15T03:04:44;25.42;;;23.02;;
46653;SDS011;38960;51.074;17.004;2023-04-15T03:07:10;25.63;;;23.05;;
46653;SDS011;38960;51.074;17.004;2023-04-15T03:09:36;25.02;;;22.55;;
46653;SDS011;38960;51.074;17.004;2023-04-15T03:12:03;26.40;;;23.75;;
46653;SDS011;38960;51.074;17.004;2023-04-15T03:14:29;25.73;;;23.42;;
46653;SDS011;38960;51.074;17.004;2023-04-15T03:16:55;25.92;;;23.45;;
46653;SDS011;38960;51.074;17.004;2023-04-15T03:19:20;26.30;;;23.80;;
46653;SDS011;38960;51.074;17.004;2023-04-15T03:21:46;25.40;;;23.20;;
46653;SDS011;38960;51.074;17.004;2023-04-15T03:24:12;26.77;;;24.48;;
46653;SDS011;38960;51.074;17.004;2023-04-15T03:26:38;26.63;;;24.30;;
46653;SDS011;38960;51.074;17.004;2023-04-15T03:31:35;28.33;;;25.75;;
46653;SDS011;38960;51.074;17.004;2023-04-15T03:34:01;28.23;;;25.73;;
46653;SDS011;38960;51.074;17.004;2023-04-15T03:36:27;26.95;;;24.55;;
46653;SDS011;38960;51.074;17.004;2023-04-15T03:38:54;25.23;;;23.02;;
46653;SDS011;38960;51.074;17.004;2023-04-15T03:41:20;24.02;;;22.13;;
46653;SDS011;38960;51.074;17.004;2023-04-15T03:43:46;21.48;;;19.55;;
46653;SDS011;38960;51.074;17.004;2023-04-15T03:46:12;21.35;;;19.63;;
46653;SDS011;38960;51.074;17.004;2023-04-15T03:48:37;20.58;;;18.98;;
46653;SDS011;38960;51.074;17.004;2023-04-15T03:51:03;18.15;;;16.83;;
46653;SDS011;38960;51.074;17.004;2023-04-15T03:53:28;18.15;;;16.95;;
46653;SDS011;38960;51.074;17.004;2023-04-15T03:55:54;17.15;;;15.95;;
46653;SDS011;38960;51.074;17.004;2023-04-15T03:58:20;18.98;;;17.58;;
46653;SDS011;38960;51.074;17.004;2023-04-15T04:00:45;18.83;;;17.27;;
46653;SDS011;38960;51.074;17.004;2023-04-15T04:03:11;19.15;;;17.77;;
46653;SDS011;38960;51.074;17.004;2023-04-15T04:05:36;17.98;;;16.65;;
46653;SDS011;38960;51.074;17.004;2023-04-15T04:08:03;18.52;;;16.98;;
46653;SDS011;38960;51.074;17.004;2023-04-15T04:10:28;16.55;;;15.35;;
46653;SDS011;38960;51.074;17.004;2023-04-15T04:12:54;15.20;;;14.30;;
46653;SDS011;38960;51.074;17.004;2023-04-15T04:15:20;14.90;;;14.00;;
46653;SDS011;38960;51.074;17.004;2023-04-15T04:17:45;15.63;;;14.63;;
46653;SDS011;38960;51.074;17.004;2023-04-15T04:20:11;15.05;;;14.15;;
46653;SDS011;38960;51.074;17.004;2023-04-15T04:22:37;15.38;;;14.48;;
46653;SDS011;38960;51.074;17.004;2023-04-15T04:25:04;14.93;;;14.02;;
46653;SDS011;38960;51.074;17.004;2023-04-15T04:27:30;14.77;;;13.77;;
46653;SDS011;38960;51.074;17.004;2023-04-15T04:29:55;14.57;;;13.68;;
46653;SDS011;38960;51.074;17.004;2023-04-15T04:32:21;15.68;;;14.73;;
46653;SDS011;38960;51.074;17.004;2023-04-15T04:34:46;14.93;;;13.90;;
46653;SDS011;38960;51.074;17.004;2023-04-15T04:37:12;14.07;;;13.27;;
46653;SDS011;38960;51.074;17.004;2023-04-15T04:39:38;13.93;;;13.02;;
46653;SDS011;38960;51.074;17.004;2023-04-15T04:42:03;14.25;;;13.45;;
46653;SDS011;38960;51.074;17.004;2023-04-15T04:44:29;14.23;;;13.43;;
46653;SDS011;38960;51.074;17.004;2023-04-15T04:46:55;14.02;;;13.23;;
46653;SDS011;38960;51.074;17.004;2023-04-15T04:49:20;14.43;;;13.27;;
46653;SDS011;38960;51.074;17.004;2023-04-15T04:51:46;14.18;;;13.27;;
46653;SDS011;38960;51.074;17.004;2023-04-15T04:54:12;13.90;;;13.10;;
46653;SDS011;38960;51.074;17.004;2023-04-15T04:56:38;13.32;;;12.52;;
46653;SDS011;38960;51.074;17.004;2023-04-15T04:59:04;14.30;;;13.40;;
46653;SDS011;38960;51.074;17.004;2023-04-15T05:01:29;13.88;;;13.10;;
46653;SDS011;38960;51.074;17.004;2023-04-15T05:03:55;14.07;;;13.27;;
46653;SDS011;38960;51.074;17.004;2023-04-15T05:06:21;13.35;;;12.65;;
46653;SDS011;38960;51.074;17.004;2023-04-15T05:08:46;14.00;;;13.20;;
46653;SDS011;38960;51.074;17.004;2023-04-15T05:11:12;13.38;;;12.68;;
46653;SDS011;38960;51.074;17.004;2023-04-15T05:13:38;13.57;;;12.68;;
46653;SDS011;38960;51.074;17.004;2023-04-15T05:16:04;13.43;;;12.70;;
46653;SDS011;38960;51.074;17.004;2023-04-15T05:18:30;13.82;;;13.02;;
46653;SDS011;38960;51.074;17.004;2023-04-15T05:20:56;13.88;;;13.18;;
46653;SDS011;38960;51.074;17.004;2023-04-15T05:23:22;14.50;;;13.68;;
46653;SDS011;38960;51.074;17.004;2023-04-15T05:25:47;13.48;;;12.77;;
46653;SDS011;38960;51.074;17.004;2023-04-15T05:28:13;14.35;;;13.35;;
46653;SDS011;38960;51.074;17.004;2023-04-15T05:30:39;15.95;;;14.30;;
46653;SDS011;38960;51.074;17.004;2023-04-15T05:33:06;14.45;;;13.55;;
46653;SDS011;38960;51.074;17.004;2023-04-15T05:35:31;14.05;;;13.25;;
46653;SDS011;38960;51.074;17.004;2023-04-15T05:37:58;14.00;;;13.20;;
46653;SDS011;38960;51.074;17.004;2023-04-15T05:40:25;15.10;;;14.00;;
46653;SDS011;38960;51.074;17.004;2023-04-15T05:42:52;14.32;;;13.32;;
46653;SDS011;38960;51.074;17.004;2023-04-15T05:45:18;13.90;;;13.10;;
46653;SDS011;38960;51.074;17.004;2023-04-15T05:47:45;14.30;;;13.50;;
46653;SDS011;38960;51.074;17.004;2023-04-15T05:50:11;13.90;;;13.05;;
46653;SDS011;38960;51.074;17.004;2023-04-15T05:52:37;13.77;;;12.98;;
46653;SDS011;38960;51.074;17.004;2023-04-15T05:55:02;13.77;;;12.73;;
46653;SDS011;38960;51.074;17.004;2023-04-15T05:57:28;13.23;;;12.52;;
46653;SDS011;38960;51.074;17.004;2023-04-15T05:59:54;13.32;;;12.63;;
46653;SDS011;38960;51.074;17.004;2023-04-15T06:02:21;14.07;;;13.38;;
46653;SDS011;38960;51.074;17.004;2023-04-15T06:04:47;14.10;;;13.20;;
46653;SDS011;38960;51.074;17.004;2023-04-15T06:07:12;14.00;;;13.20;;
46653;SDS011;38960;51.074;17.004;2023-04-15T06:09:38;14.40;;;13.60;;
46653;SDS011;38960;51.074;17.004;2023-04-15T06:12:03;14.43;;;13.52;;
46653;SDS011;38960;51.074;17.004;2023-04-15T06:14:31;13.82;;;13.02;;
46653;SDS011;38960;51.074;17.004;2023-04-15T06:16:56;12.75;;;12.05;;
46653;SDS011;38960;51.074;17.004;2023-04-15T06:19:22;12.90;;;12.20;;
46653;SDS011;38960;51.074;17.004;2023-04-15T06:21:47;12.80;;;12.10;;
46653;SDS011;38960;51.074;17.004;2023-04-15T06:24:13;13.00;;;12.20;;
46653;SDS011;38960;51.074;17.004;2023-04-15T06:26:38;13.15;;;12.35;;
46653;SDS011;38960;51.074;17.004;2023-04-15T06:29:04;13.07;;;12.38;;
46653;SDS011;38960;51.074;17.004;2023-04-15T06:31:30;7.60;;;7.15;;
46653;SDS011;38960;51.074;17.004;2023-04-15T06:33:55;13.20;;;12.50;;
46653;SDS011;38960;51.074;17.004;2023-04-15T06:36:21;13.90;;;13.10;;
46653;SDS011;38960;51.074;17.004;2023-04-15T06:38:47;13.07;;;12.27;;
46653;SDS011;38960;51.074;17.004;2023-04-15T06:41:13;12.70;;;12.00;;
46653;SDS011;38960;51.074;17.004;2023-04-15T06:43:39;13.13;;;12.32;;
46653;SDS011;38960;51.074;17.004;2023-04-15T06:46:04;12.20;;;11.50;;
46653;SDS011;38960;51.074;17.004;2023-04-15T06:48:30;12.57;;;11.88;;
46653;SDS011;38960;51.074;17.004;2023-04-15T06:50:56;12.80;;;12.10;;
46653;SDS011;38960;51.074;17.004;2023-04-15T06:53:24;13.23;;;12.35;;
46653;SDS011;38960;51.074;17.004;2023-04-15T06:55:52;13.35;;;12.55;;
46653;SDS011;38960;51.074;17.004;2023-04-15T06:58:17;12.88;;;12.15;;
46653;SDS011;38960;51.074;17.004;2023-04-15T07:00:43;12.90;;;12.20;;
46653;SDS011;38960;51.074;17.004;2023-04-15T07:03:10;12.85;;;12.15;;
46653;SDS011;38960;51.074;17.004;2023-04-15T07:05:37;13.23;;;12.43;;
46653;SDS011;38960;51.074;17.004;2023-04-15T07:08:03;12.90;;;12.20;;
46653;SDS011;38960;51.074;17.004;2023-04-15T07:10:28;13.57;;;12.77;;
46653;SDS011;38960;51.074;17.004;2023-04-15T07:12:55;13.07;;;12.30;;
46653;SDS011;38960;51.074;17.004;2023-04-15T07:15:21;12.77;;;12.07;;
46653;SDS011;38960;51.074;17.004;2023-04-15T07:17:47;12.63;;;11.93;;
46653;SDS011;38960;51.074;17.004;2023-04-15T07:20:14;12.68;;;11.90;;
46653;SDS011;38960;51.074;17.004;2023-04-15T07:22:39;12.15;;;11.45;;
46653;SDS011;38960;51.074;17.004;2023-04-15T07:25:05;12.30;;;11.60;;
46653;SDS011;38960;51.074;17.004;2023-04-15T07:27:31;11.73;;;11.05;;
46653;SDS011;38960;51.074;17.004;2023-04-15T07:29:57;11.98;;;11.27;;
46653;SDS011;38960;51.074;17.004;2023-04-15T07:32:24;12.23;;;11.40;;
46653;SDS011;38960;51.074;17.004;2023-04-15T07:34:50;10.95;;;10.35;;
46653;SDS011;38960;51.074;17.004;2023-04-15T07:37:16;12.15;;;11.25;;
46653;SDS011;38960;51.074;17.004;2023-04-15T07:39:41;12.68;;;11.98;;
46653;SDS011;38960;51.074;17.004;2023-04-15T07:42:09;12.18;;;11.57;;
46653;SDS011;38960;51.074;17.004;2023-04-15T07:44:35;11.80;;;11.20;;
46653;SDS011;38960;51.074;17.004;2023-04-15T07:47:02;11.40;;;10.80;;
46653;SDS011;38960;51.074;17.004;2023-04-15T07:49:28;12.18;;;11.57;;
46653;SDS011;38960;51.074;17.004;2023-04-15T07:51:53;11.88;;;11.18;;
46653;SDS011;38960;51.074;17.004;2023-04-15T07:54:20;12.07;;;11.40;;
46653;SDS011;38960;51.074;17.004;2023-04-15T07:56:46;11.93;;;11.27;;
46653;SDS011;38960;51.074;17.004;2023-04-15T07:59:14;12.77;;;11.88;;
46653;SDS011;38960;51.074;17.004;2023-04-15T08:01:42;12.05;;;11.30;;
46653;SDS011;38960;51.074;17.004;2023-04-15T08:04:08;11.93;;;11.27;;
46653;SDS011;38960;51.074;17.004;2023-04-15T08:06:34;12.30;;;11.60;;
46653;SDS011;38960;51.074;17.004;2023-04-15T08:09:00;11.52;;;10.93;;
46653;SDS011;38960;51.074;17.004;2023-04-15T08:11:26;10.95;;;10.35;;
46653;SDS011;38960;51.074;17.004;2023-04-15T08:13:52;12.07;;;11.00;;
46653;SDS011;38960;51.074;17.004;2023-04-15T08:16:22;12.05;;;11.30;;
46653;SDS011;38960;51.074;17.004;2023-04-15T08:18:50;12.05;;;11.23;;
46653;SDS011;38960;51.074;17.004;2023-04-15T08:21:17;12.02;;;11.23;;
46653;SDS011;38960;51.074;17.004;2023-04-15T08:23:44;11.43;;;10.73;;
46653;SDS011;38960;51.074;17.004;2023-04-15T08:26:12;12.68;;;11.88;;
46653;SDS011;38960;51.074;17.004;2023-04-15T08:28:39;11.50;;;10.70;;
46653;SDS011;38960;51.074;17.004;2023-04-15T08:31:05;11.32;;;10.63;;
46653;SDS011;38960;51.074;17.004;2023-04-15T08:33:31;11.20;;;10.55;;
46653;SDS011;38960;51.074;17.004;2023-04-15T08:35:57;11.93;;;11.32;;
46653;SDS011;38960;51.074;17.004;2023-04-15T08:38:22;11.73;;;11.00;;
46653;SDS011;38960;51.074;17.004;2023-04-15T08:40:48;12.68;;;11.77;;
46653;SDS011;38960;51.074;17.004;2023-04-15T08:43:20;12.82;;;12.02;;
46653;SDS011;38960;51.074;17.004;2023-04-15T08:45:51;13.48;;;12.68;;
46653;SDS011;38960;51.074;17.004;2023-04-15T08:48:17;12.60;;;11.90;;
46653;SDS011;38960;51.074;17.004;2023-04-15T08:50:44;13.02;;;12.05;;
46653;SDS011;38960;51.074;17.004;2023-04-15T08:53:10;12.23;;;11.52;;
46653;SDS011;38960;51.074;17.004;2023-04-15T08:55:38;12.90;;;12.15;;
46653;SDS011;38960;51.074;17.004;2023-04-15T08:58:08;12.70;;;11.93;;
46653;SDS011;38960;51.074;17.004;2023-04-15T09:00:34;12.88;;;12.13;;
46653;SDS011;38960;51.074;17.004;2023-04-15T09:03:00;12.32;;;11.73;;
46653;SDS011;38960;51.074;17.004;2023-04-15T09:05:26;12.15;;;11.55;;
46653;SDS011;38960;51.074;17.004;2023-04-15T09:07:51;12.57;;;11.88;;
46653;SDS011;38960;51.074;17.004;2023-04-15T09:10:17;12.82;;;12.13;;
46653;SDS011;38960;51.074;17.004;2023-04-15T09:12:42;13.07;;;12.38;;
46653;SDS011;38960;51.074;17.004;2023-04-15T09:15:11;12.48;;;11.77;;
46653;SDS011;38960;51.074;17.004;2023-04-15T09:17:41;13.02;;;12.23;;
46653;SDS011;38960;51.074;17.004;2023-04-15T09:20:14;12.75;;;12.05;;
46653;SDS011;38960;51.074;17.004;2023-04-15T09:22:40;13.63;;;12.63;;
46653;SDS011;38960;51.074;17.004;2023-04-15T09:30:17;13.55;;;12.82;;
46653;SDS011;38960;51.074;17.004;2023-04-15T09:32:55;15.10;;;14.23;;
46653;SDS011;38960;51.074;17.004;2023-04-15T09:35:22;12.30;;;11.65;;
46653;SDS011;38960;51.074;17.004;2023-04-15T09:37:49;12.88;;;11.93;;
46653;SDS011;38960;51.074;17.004;2023-04-15T09:42:57;13.02;;;12.32;;
46653;SDS011;38960;51.074;17.004;2023-04-15T09:45:23;12.00;;;11.20;;
46653;SDS011;38960;51.074;17.004;2023-04-15T09:47:49;12.88;;;12.02;;
46653;SDS011;38960;51.074;17.004;2023-04-15T09:50:16;12.88;;;12.20;;
46653;SDS011;38960;51.074;17.004;2023-04-15T09:52:42;13.60;;;12.90;;
46653;SDS011;38960;51.074;17.004;2023-04-15T09:55:08;13.50;;;12.50;;
46653;SDS011;38960;51.074;17.004;2023-04-15T09:57:34;13.27;;;12.57;;
46653;SDS011;38960;51.074;17.004;2023-04-15T10:00:03;13.25;;;12.27;;
46653;SDS011;38960;51.074;17.004;2023-04-15T10:02:31;11.90;;;11.30;;
46653;SDS011;38960;51.074;17.004;2023-04-15T10:04:57;11.88;;;11.27;;
46653;SDS011;38960;51.074;17.004;2023-04-15T10:07:24;11.73;;;11.13;;
46653;SDS011;38960;51.074;17.004;2023-04-15T10:09:50;12.10;;;11.50;;
46653;SDS011;38960;51.074;17.004;2023-04-15T10:12:16;11.90;;;11.20;;
46653;SDS011;38960;51.074;17.004;2023-04-15T10:14:42;11.18;;;10.57;;
46653;SDS011;38960;51.074;17.004;2023-04-15T10:17:10;11.48;;;10.88;;
46653;SDS011;38960;51.074;17.004;2023-04-15T10:19:36;12.13;;;11.32;;
46653;SDS011;38960;51.074;17.004;2023-04-15T10:22:02;11.70;;;11.10;;
46653;SDS011;38960;51.074;17.004;2023-04-15T10:24:31;11.98;;;11.38;;
46653;SDS011;38960;51.074;17.004;2023-04-15T10:26:58;12.60;;;11.95;;
46653;SDS011;38960;51.074;17.004;2023-04-15T10:29:24;13.75;;;12.93;;
46653;SDS011;38960;51.074;17.004;2023-04-15T10:31:52;12.55;;;11.88;;
46653;SDS011;38960;51.074;17.004;2023-04-15T10:34:19;12.98;;;12.27;;
46653;SDS011;38960;51.074;17.004;2023-04-15T10:36:46;12.57;;;11.88;;
46653;SDS011;38960;51.074;17.004;2023-04-15T10:42:06;12.73;;;12.02;;
46653;SDS011;38960;51.074;17.004;2023-04-15T10:44:32;13.00;;;12.30;;
46653;SDS011;38960;51.074;17.004;2023-04-15T10:46:58;12.40;;;11.70;;
46653;SDS011;38960;51.074;17.004;2023-04-15T10:49:24;12.63;;;11.93;;
46653;SDS011;38960;51.074;17.004;2023-04-15T10:51:50;12.15;;;11.45;;
46653;SDS011;38960;51.074;17.004;2023-04-15T10:59:58;12.80;;;12.15;;
46653;SDS011;38960;51.074;17.004;2023-04-15T11:02:45;11.77;;;11.18;;
46653;SDS011;38960;51.074;17.004;2023-04-15T11:05:11;12.70;;;12.00;;
46653;SDS011;38960;51.074;17.004;2023-04-15T11:12:50;13.10;;;12.40;;
46653;SDS011;38960;51.074;17.004;2023-04-15T11:15:32;11.98;;;11.38;;
46653;SDS011;38960;51.074;17.004;2023-04-15T11:20:48;13.90;;;13.10;;
46653;SDS011;38960;51.074;17.004;2023-04-15T11:23:20;12.60;;;11.80;;
46653;SDS011;38960;51.074;17.004;2023-04-15T11:25:55;12.93;;;11.85;;
46653;SDS011;38960;51.074;17.004;2023-04-15T11:28:27;13.00;;;12.10;;
46653;SDS011;38960;51.074;17.004;2023-04-15T11:30:54;12.77;;;11.98;;
46653;SDS011;38960;51.074;17.004;2023-04-15T11:33:20;12.73;;;12.02;;
46653;SDS011;38960;51.074;17.004;2023-04-15T11:35:47;12.63;;;11.93;;
46653;SDS011;38960;51.074;17.004;2023-04-15T11:38:12;12.20;;;11.50;;
46653;SDS011;38960;51.074;17.004;2023-04-15T11:40:39;12.52;;;11.85;;
46653;SDS011;38960;51.074;17.004;2023-04-15T11:46:00;12.48;;;11.77;;
46653;SDS011;38960;51.074;17.004;2023-04-15T11:48:27;12.40;;;11.70;;
46653;SDS011;38960;51.074;17.004;2023-04-15T11:51:06;12.77;;;11.98;;
46653;SDS011;38960;51.074;17.004;2023-04-15T11:53:39;13.45;;;12.75;;
46653;SDS011;38960;51.074;17.004;2023-04-15T11:56:05;12.82;;;12.02;;
46653;SDS011;38960;51.074;17.004;2023-04-15T11:58:33;12.00;;;11.40;;
46653;SDS011;38960;51.074;17.004;2023-04-15T12:00:59;12.80;;;11.90;;
46653;SDS011;38960;51.074;17.004;2023-04-15T12:03:26;12.40;;;11.57;;
46653;SDS011;38960;51.074;17.004;2023-04-15T12:13:52;12.05;;;11.45;;
46653;SDS011;38960;51.074;17.004;2023-04-15T12:16:18;12.52;;;11.60;;
46653;SDS011;38960;51.074;17.004;2023-04-15T12:18:45;12.45;;;11.82;;
46653;SDS011;38960;51.074;17.004;2023-04-15T12:21:11;12.65;;;11.95;;
46653;SDS011;38960;51.074;17.004;2023-04-15T12:23:37;13.93;;;12.93;;
46653;SDS011;38960;51.074;17.004;2023-04-15T12:26:04;14.07;;;13.05;;
46653;SDS011;38960;51.074;17.004;2023-04-15T12:28:33;11.38;;;10.77;;
46653;SDS011;38960;51.074;17.004;2023-04-15T12:31:05;11.18;;;10.30;;
46653;SDS011;38960;51.074;17.004;2023-04-15T12:33:33;10.65;;;9.90;;
46653;SDS011;38960;51.074;17.004;2023-04-15T12:35:58;10.13;;;9.32;;
46653;SDS011;38960;51.074;17.004;2023-04-15T12:38:24;10.15;;;9.45;;
46653;SDS011;38960;51.074;17.004;2023-04-15T12:40:49;13.43;;;12.35;;
46653;SDS011;38960;51.074;17.004;2023-04-15T12:43:15;12.30;;;11.60;;
46653;SDS011;38960;51.074;17.004;2023-04-15T12:45:41;12.35;;;11.65;;
46653;SDS011;38960;51.074;17.004;2023-04-15T12:48:07;12.98;;;12.18;;
46653;SDS011;38960;51.074;17.004;2023-04-15T12:50:34;12.80;;;12.10;;
46653;SDS011;38960;51.074;17.004;2023-04-15T12:52:59;12.15;;;11.55;;
46653;SDS011;38960;51.074;17.004;2023-04-15T12:55:25;12.75;;;12.05;;
46653;SDS011;38960;51.074;17.004;2023-04-15T12:57:51;11.50;;;10.90;;
46653;SDS011;38960;51.074;17.004;2023-04-15T13:00:16;12.75;;;12.05;;
46653;SDS011;38960;51.074;17.004;2023-04-15T13:02:42;12.80;;;12.10;;
46653;SDS011;38960;51.074;17.004;2023-04-15T13:05:08;12.40;;;11.70;;
46653;SDS011;38960;51.074;17.004;2023-04-15T13:07:34;12.73;;;12.02;;
46653;SDS011;38960;51.074;17.004;2023-04-15T13:09:59;12.40;;;11.70;;
46653;SDS011;38960;51.074;17.004;2023-04-15T13:12:25;11.98;;;11.27;;
46653;SDS011;38960;51.074;17.004;2023-04-15T13:14:51;11.63;;;10.93;;
46653;SDS011;38960;51.074;17.004;2023-04-15T13:17:17;11.30;;;10.70;;
46653;SDS011;38960;51.074;17.004;2023-04-15T13:19:44;12.43;;;11.73;;
46653;SDS011;38960;51.074;17.004;2023-04-15T13:22:10;11.65;;;11.05;;
46653;SDS011;38960;51.074;17.004;2023-04-15T13:24:36;12.05;;;11.27;;
46653;SDS011;38960;51.074;17.004;2023-04-15T13:27:03;13.52;;;12.73;;
46653;SDS011;38960;51.074;17.004;2023-04-15T13:29:29;12.88;;;12.07;;
46653;SDS011;38960;51.074;17.004;2023-04-15T13:31:55;12.40;;;11.70;;
46653;SDS011;38960;51.074;17.004;2023-04-15T13:34:20;11.38;;;10.77;;
46653;SDS011;38960;51.074;17.004;2023-04-15T13:36:46;11.43;;;10.82;;
46653;SDS011;38960;51.074;17.004;2023-04-15T13:39:12;11.93;;;11.32;;
46653;SDS011;38960;51.074;17.004;2023-04-15T13:41:37;12.50;;;11.82;;
46653;SDS011;38960;51.074;17.004;2023-04-15T13:44:04;12.73;;;11.77;;
46653;SDS011;38960;51.074;17.004;2023-04-15T13:46:30;12.10;;;11.40;;
46653;SDS011;38960;51.074;17.004;2023-04-15T13:48:55;12.23;;;11.48;;
46653;SDS011;38960;51.074;17.004;2023-04-15T13:51:21;11.73;;;11.13;;
46653;SDS011;38960;51.074;17.004;2023-04-15T13:53:46;11.93;;;11.32;;
46653;SDS011;38960;51.074;17.004;2023-04-15T13:56:12;12.13;;;11.43;;
46653;SDS011;38960;51.074;17.004;2023-04-15T13:58:38;11.30;;;10.60;;
46653;SDS011;38960;51.074;17.004;2023-04-15T14:01:05;12.18;;;11.48;;
46653;SDS011;38960;51.074;17.004;2023-04-15T14:03:30;11.88;;;11.27;;
46653;SDS011;38960;51.074;17.004;2023-04-15T14:05:56;11.65;;;11.05;;
46653;SDS011;38960;51.074;17.004;2023-04-15T14:08:23;11.95;;;11.15;;
46653;SDS011;38960;51.074;17.004;2023-04-15T14:10:49;11.52;;;10.80;;
46653;SDS011;38960;51.074;17.004;2023-04-15T14:13:15;12.88;;;12.18;;
46653;SDS011;38960;51.074;17.004;2023-04-15T14:15:40;12.52;;;11.82;;
46653;SDS011;38960;51.074;17.004;2023-04-15T14:18:06;12.43;;;11.73;;
46653;SDS011;38960;51.074;17.004;2023-04-15T14:20:32;13.43;;;12.57;;
46653;SDS011;38960;51.074;17.004;2023-04-15T14:22:58;13.70;;;12.80;;
46653;SDS011;38960;51.074;17.004;2023-04-15T14:25:23;12.82;;;11.93;;
46653;SDS011;38960;51.074;17.004;2023-04-15T14:27:49;13.20;;;12.40;;
46653;SDS011;38960;51.074;17.004;2023-04-15T14:30:14;13.43;;;12.48;;
46653;SDS011;38960;51.074;17.004;2023-04-15T14:32:40;12.75;;;11.98;;
46653;SDS011;38960;51.074;17.004;2023-04-15T14:35:05;12.75;;;12.05;;
46653;SDS011;38960;51.074;17.004;2023-04-15T14:37:31;12.43;;;11.73;;
46653;SDS011;38960;51.074;17.004;2023-04-15T14:39:57;13.45;;;12.55;;
46653;SDS011;38960;51.074;17.004;2023-04-15T14:42:22;12.43;;;11.73;;
46653;SDS011;38960;51.074;17.004;2023-04-15T14:44:49;11.48;;;10.88;;
46653;SDS011;38960;51.074;17.004;2023-04-15T14:47:14;12.55;;;11.75;;